createdAt,value
2023-01-22T00:03:29.471Z,7.10
2023-01-22T00:08:22.766Z,6.20
2023-01-22T00:13:20.904Z,5.90
2023-01-22T00:15:47.737Z,5.80
2023-01-22T00:18:15.089Z,6.40
2023-01-22T00:20:41.863Z,6.30
2023-01-22T00:25:35.145Z,5.50
2023-01-22T00:30:28.388Z,7.50
2023-01-22T00:32:54.995Z,7.70
2023-01-22T00:35:21.636Z,8.20
2023-01-22T00:37:48.700Z,8.50
2023-01-22T00:40:16.823Z,6.70
2023-01-22T00:42:43.965Z,7.60
2023-01-22T00:45:14.381Z,6.80
2023-01-22T00:47:41.527Z,6.30
2023-01-22T00:50:09.363Z,6.40
2023-01-22T00:52:37.899Z,6.20
2023-01-22T00:55:05.673Z,6.40
2023-01-22T00:57:33.160Z,6.60
2023-01-22T00:59:59.868Z,6.00
2023-01-22T01:02:29.113Z,6.40
2023-01-22T01:04:56.979Z,7.20
2023-01-22T01:07:23.960Z,7.00
2023-01-22T01:09:50.905Z,5.80
2023-01-22T01:14:44.430Z,6.10
2023-01-22T01:17:11.167Z,6.80
2023-01-22T01:22:06.243Z,7.60
2023-01-22T01:24:32.841Z,7.10
2023-01-22T01:26:59.516Z,7.20
2023-01-22T01:29:26.197Z,6.70
2023-01-22T01:34:21.464Z,4.20
2023-01-22T01:36:49.551Z,3.90
2023-01-22T01:39:17.313Z,4.20
2023-01-22T01:41:44.651Z,3.90
2023-01-22T01:44:17.237Z,3.40
2023-01-22T01:46:50.078Z,3.50
2023-01-22T01:51:48.009Z,3.30
2023-01-22T01:54:15.687Z,3.40
2023-01-22T01:56:48.939Z,3.40
2023-01-22T01:59:18.824Z,3.10
2023-01-22T02:01:51.416Z,2.90
2023-01-22T02:04:19.586Z,3.00
2023-01-22T02:06:46.239Z,2.90
2023-01-22T02:09:14.521Z,2.90
2023-01-22T02:11:41.299Z,2.50
2023-01-22T02:18:08.593Z,2.20
2023-01-22T02:20:37.575Z,2.80
2023-01-22T02:23:07.937Z,2.30
2023-01-22T02:25:34.637Z,2.50
2023-01-22T02:28:01.675Z,3.10
2023-01-22T02:30:28.430Z,3.00
2023-01-22T02:32:56.140Z,2.70
2023-01-22T02:35:23.976Z,2.70
2023-01-22T02:37:50.728Z,3.00
2023-01-22T02:40:17.843Z,2.60
2023-01-22T02:42:45.354Z,2.50
2023-01-22T02:47:38.885Z,2.10
2023-01-22T02:50:06.601Z,2.00
2023-01-22T02:52:33.789Z,2.40
2023-01-22T02:55:00.499Z,2.00
2023-01-22T02:57:30.302Z,2.10
2023-01-22T02:59:57.715Z,2.30
2023-01-22T03:02:25.801Z,2.20
2023-01-22T03:05:03.184Z,2.10
2023-01-22T03:07:42.175Z,2.20
2023-01-22T03:10:12.481Z,2.90
2023-01-22T03:12:58.420Z,2.40
2023-01-22T03:15:44.089Z,2.00
2023-01-22T03:18:30.593Z,2.40
2023-01-22T03:21:14.797Z,1.80
2023-01-22T03:23:48.832Z,2.20
2023-01-22T03:26:17.694Z,1.70
2023-01-22T03:28:46.035Z,2.00
2023-01-22T03:31:14.972Z,2.00
2023-01-22T03:33:43.357Z,2.20
2023-01-22T03:36:14.097Z,2.10
2023-01-22T03:38:46.024Z,2.10
2023-01-22T03:41:17.985Z,2.40
2023-01-22T03:43:46.568Z,2.10
2023-01-22T03:46:20.680Z,2.10
2023-01-22T03:48:52.145Z,1.90
2023-01-22T03:51:20.311Z,1.60
2023-01-22T03:53:47.761Z,2.30
2023-01-22T03:56:24.974Z,2.60
2023-01-22T03:58:52.670Z,2.80
2023-01-22T04:05:40.708Z,2.10
2023-01-22T04:10:35.300Z,2.20
2023-01-22T04:13:02.938Z,1.90
2023-01-22T04:17:57.477Z,1.80
2023-01-22T04:20:52.126Z,2.00
2023-01-22T04:23:31.428Z,2.20
2023-01-22T04:25:59.860Z,2.10
2023-01-22T04:28:26.647Z,1.80
2023-01-22T04:30:56.173Z,1.70
2023-01-22T04:36:13.799Z,1.90
2023-01-22T04:41:08.780Z,1.90
2023-01-22T04:46:03.243Z,1.80
2023-01-22T04:48:31.916Z,1.70
2023-01-22T04:51:00.388Z,1.70
2023-01-22T04:53:29.365Z,1.50
2023-01-22T04:55:56.254Z,1.60
2023-01-22T04:58:23.066Z,1.60
2023-01-22T05:00:51.197Z,1.60
2023-01-22T05:03:18.063Z,1.70
2023-01-22T05:08:12.067Z,1.50
2023-01-22T05:10:38.689Z,0.80
2023-01-22T05:13:07.817Z,1.20
2023-01-22T05:15:35.390Z,1.10
2023-01-22T05:18:09.060Z,1.40
2023-01-22T05:20:39.551Z,1.60
2023-01-22T05:23:07.214Z,1.50
2023-01-22T05:25:33.998Z,1.60
2023-01-22T05:28:01.994Z,1.20
2023-01-22T05:30:58.084Z,1.40
2023-01-22T05:33:32.984Z,1.80
2023-01-22T05:36:01.996Z,1.60
2023-01-22T05:38:30.375Z,2.10
2023-01-22T05:40:58.028Z,2.20
2023-01-22T05:43:24.844Z,2.00
2023-01-22T05:46:01.265Z,2.00
2023-01-22T05:48:49.650Z,1.90
2023-01-22T05:51:23.875Z,2.20
2023-01-22T05:53:50.800Z,2.40
2023-01-22T05:56:18.919Z,3.00
2023-01-22T05:58:45.902Z,2.40
2023-01-22T06:01:13.217Z,3.00
2023-01-22T06:03:43.890Z,2.70
2023-01-22T06:06:14.369Z,2.40
2023-01-22T06:08:41.798Z,2.50
2023-01-22T06:11:17.063Z,1.70
2023-01-22T06:13:47.420Z,1.60
2023-01-22T06:16:18.649Z,1.70
2023-01-22T06:19:09.029Z,1.80
2023-01-22T06:21:41.018Z,2.10
2023-01-22T06:24:08.311Z,2.70
2023-01-22T06:26:35.505Z,2.40
2023-01-22T06:29:02.616Z,2.10
2023-01-22T06:31:31.117Z,1.80
2023-01-22T06:33:57.749Z,1.30
2023-01-22T06:38:51.678Z,1.40
2023-01-22T06:41:27.042Z,1.50
2023-01-22T06:43:57.524Z,1.60
2023-01-22T06:49:01.644Z,1.60
2023-01-22T06:51:30.323Z,1.90
2023-01-22T06:53:57.603Z,2.00
2023-01-22T06:56:24.422Z,2.10
2023-01-22T06:58:51.381Z,1.60
2023-01-22T07:03:46.266Z,3.10
2023-01-22T07:06:13.255Z,5.60
2023-01-22T07:08:41.125Z,2.90
2023-01-22T07:11:08.068Z,3.20
2023-01-22T07:13:34.861Z,3.60
2023-01-22T07:18:30.032Z,2.00
2023-01-22T07:21:01.888Z,1.70
2023-01-22T07:23:29.523Z,2.10
2023-01-22T07:25:56.772Z,1.40
2023-01-22T07:28:25.299Z,1.60
2023-01-22T07:30:52.363Z,1.80
2023-01-22T07:33:19.091Z,2.00
2023-01-22T07:38:19.627Z,1.50
2023-01-22T07:40:48.224Z,1.80
2023-01-22T07:43:17.868Z,2.10
2023-01-22T07:45:45.294Z,1.90
2023-01-22T07:48:12.647Z,2.10
2023-01-22T07:50:40.400Z,2.10
2023-01-22T07:53:08.790Z,2.30
2023-01-22T07:55:35.490Z,2.00
2023-01-22T08:00:31.234Z,1.40
2023-01-22T08:02:58.004Z,2.30
2023-01-22T08:05:24.882Z,2.00
2023-01-22T08:07:51.715Z,2.00
2023-01-22T08:10:19.418Z,1.80
2023-01-22T08:12:46.795Z,2.00
2023-01-22T08:15:13.726Z,2.10
2023-01-22T08:20:08.457Z,1.70
2023-01-22T08:22:35.120Z,2.10
2023-01-22T08:25:01.744Z,1.90
2023-01-22T08:27:28.315Z,2.70
2023-01-22T08:29:55.309Z,2.30
2023-01-22T08:32:22.227Z,1.90
2023-01-22T08:34:50.771Z,2.00
2023-01-22T08:37:17.377Z,2.10
2023-01-22T08:39:44.015Z,1.80
2023-01-22T08:42:10.774Z,2.20
2023-01-22T08:47:04.206Z,1.50
2023-01-22T08:49:31.135Z,1.70
2023-01-22T08:51:58.120Z,1.80
2023-01-22T08:54:26.310Z,1.60
2023-01-22T08:56:53.040Z,1.60
2023-01-22T09:01:46.462Z,1.40
2023-01-22T09:04:13.311Z,1.40
2023-01-22T09:06:40.034Z,2.20
2023-01-22T09:11:33.919Z,1.20
2023-01-22T09:14:00.962Z,1.30
2023-01-22T09:16:28.107Z,1.40
2023-01-22T09:18:58.838Z,1.60
2023-01-22T09:21:25.602Z,1.50
2023-01-22T09:26:20.601Z,1.30
2023-01-22T09:28:47.351Z,1.30
2023-01-22T09:38:03.593Z,1.40
2023-01-22T09:44:48.198Z,2.30
2023-01-22T09:47:19.531Z,1.20
2023-01-22T09:49:56.365Z,1.20
2023-01-22T09:52:27.490Z,1.50
2023-01-22T09:54:54.436Z,1.50
2023-01-22T09:57:31.357Z,1.70
2023-01-22T09:59:59.303Z,1.70
2023-01-22T10:02:40.729Z,1.70
2023-01-22T10:05:30.463Z,1.20
2023-01-22T10:08:04.848Z,1.40
2023-01-22T10:10:33.939Z,1.10
2023-01-22T10:13:26.846Z,1.20
2023-01-22T10:15:55.310Z,1.30
2023-01-22T10:18:27.296Z,1.50
2023-01-22T10:20:55.617Z,1.40
2023-01-22T10:23:25.859Z,1.50
2023-01-22T10:26:16.375Z,1.60
2023-01-22T10:28:45.736Z,1.50
2023-01-22T10:31:41.343Z,1.60
2023-01-22T10:34:20.423Z,1.50
2023-01-22T10:36:52.472Z,1.50
2023-01-22T10:39:20.976Z,1.70
2023-01-22T10:41:49.082Z,1.50
2023-01-22T10:44:26.928Z,1.50
2023-01-22T10:46:55.396Z,1.60
2023-01-22T10:49:24.866Z,1.70
2023-01-22T10:52:06.788Z,1.30
2023-01-22T10:54:39.658Z,1.80
2023-01-22T10:57:21.428Z,1.70
2023-01-22T10:59:53.495Z,1.70
2023-01-22T11:02:25.081Z,1.50
2023-01-22T11:04:53.039Z,1.90
2023-01-22T11:07:32.891Z,1.40
2023-01-22T11:10:32.073Z,1.60
2023-01-22T11:13:13.504Z,1.60
2023-01-22T11:15:47.080Z,1.60
2023-01-22T11:18:35.394Z,1.50
2023-01-22T11:21:10.556Z,2.00
2023-01-22T11:23:46.442Z,1.70
2023-01-22T11:30:53.840Z,1.20
2023-01-22T11:33:26.745Z,1.50
2023-01-22T11:36:17.133Z,1.10
2023-01-22T11:43:09.237Z,1.00
2023-01-22T11:50:04.623Z,1.30
2023-01-22T11:52:41.695Z,1.30
2023-01-22T11:55:08.631Z,0.80
2023-01-22T12:02:24.717Z,1.30
2023-01-22T12:04:57.187Z,1.40
2023-01-22T12:07:46.396Z,1.00
2023-01-22T12:10:31.594Z,1.40
2023-01-22T12:13:26.791Z,1.20
2023-01-22T12:16:05.435Z,1.00
2023-01-22T12:18:36.769Z,1.30
2023-01-22T12:21:12.336Z,1.00
2023-01-22T12:23:55.398Z,1.10
2023-01-22T12:26:32.724Z,1.00
2023-01-22T12:29:28.318Z,0.60
2023-01-22T12:32:12.998Z,1.10
2023-01-22T12:34:55.925Z,1.00
2023-01-22T12:37:28.552Z,1.10
2023-01-22T12:43:04.772Z,1.20
2023-01-22T12:45:59.088Z,1.10
2023-01-22T12:48:28.824Z,1.30
2023-01-22T12:50:57.243Z,1.20
2023-01-22T12:53:30.279Z,1.20
2023-01-22T12:56:06.367Z,1.40
2023-01-22T12:58:36.193Z,1.10
2023-01-22T13:01:09.017Z,1.30
2023-01-22T13:03:36.876Z,1.30
2023-01-22T13:06:25.572Z,1.50
2023-01-22T13:08:52.234Z,1.40
2023-01-22T13:18:27.860Z,1.30
2023-01-22T13:21:05.697Z,1.30
2023-01-22T13:23:35.705Z,1.50
2023-01-22T13:26:03.820Z,1.40
2023-01-22T13:28:30.539Z,1.40
2023-01-22T13:31:03.302Z,1.80
2023-01-22T13:33:30.878Z,1.80
2023-01-22T13:35:58.468Z,1.40
2023-01-22T13:38:31.099Z,1.60
2023-01-22T13:43:27.100Z,1.60
2023-01-22T13:45:56.260Z,1.30
2023-01-22T13:48:25.160Z,1.70
2023-01-22T13:51:06.201Z,1.30
2023-01-22T13:53:39.552Z,1.50
2023-01-22T13:56:08.419Z,1.40
2023-01-22T13:58:49.367Z,1.20
2023-01-22T14:01:32.842Z,1.10
2023-01-22T14:04:01.609Z,1.20
2023-01-22T14:06:29.553Z,1.50
2023-01-22T14:08:57.889Z,1.20
2023-01-22T14:11:24.601Z,1.30
2023-01-22T14:16:19.545Z,1.10
2023-01-22T14:18:46.988Z,1.50
2023-01-22T14:21:14.621Z,1.20
2023-01-22T14:23:42.866Z,1.70
2023-01-22T14:26:10.052Z,1.20
2023-01-22T14:28:37.073Z,1.70
2023-01-22T14:31:05.168Z,1.30
2023-01-22T14:33:33.758Z,1.90
2023-01-22T14:36:00.746Z,1.40
2023-01-22T14:38:28.606Z,1.80
2023-01-22T14:40:55.721Z,1.90
2023-01-22T14:43:22.783Z,2.30
2023-01-22T14:45:49.555Z,2.10
2023-01-22T14:48:19.023Z,1.60
2023-01-22T14:50:45.851Z,1.80
2023-01-22T14:53:13.968Z,2.10
2023-01-22T14:55:42.719Z,1.70
2023-01-22T14:58:10.558Z,1.80
2023-01-22T15:00:38.724Z,2.00
2023-01-22T15:03:05.887Z,2.00
2023-01-22T15:05:35.575Z,2.40
2023-01-22T15:08:03.062Z,2.20
2023-01-22T15:10:29.899Z,2.40
2023-01-22T15:12:56.991Z,1.90
2023-01-22T15:15:27.042Z,2.50
2023-01-22T15:17:55.043Z,2.20
2023-01-22T15:20:22.296Z,1.70
2023-01-22T15:29:46.721Z,1.70
2023-01-22T15:32:13.449Z,1.60
2023-01-22T15:34:40.510Z,1.90
2023-01-22T15:37:07.595Z,1.80
2023-01-22T15:39:34.620Z,2.10
2023-01-22T15:42:01.351Z,2.00
2023-01-22T15:46:55.761Z,1.80
2023-01-22T15:49:22.491Z,1.70
2023-01-22T15:54:16.489Z,1.50
2023-01-22T15:56:44.214Z,1.50
2023-01-22T15:59:12.051Z,1.90
2023-01-22T16:01:39.096Z,1.60
2023-01-22T16:04:06.692Z,1.90
2023-01-22T16:06:34.484Z,1.90
2023-01-22T16:09:02.900Z,2.30
2023-01-22T16:16:23.297Z,1.90
2023-01-22T16:27:04.636Z,2.20
2023-01-22T16:29:31.353Z,2.20
2023-01-22T16:34:24.855Z,2.20
2023-01-22T16:36:51.534Z,2.20
2023-01-22T16:41:49.003Z,2.60
2023-01-22T16:44:21.012Z,2.30
2023-01-22T16:46:49.908Z,2.20
2023-01-22T16:49:24.317Z,2.40
2023-01-22T16:56:03.918Z,2.60
2023-01-22T16:58:30.656Z,3.50
2023-01-22T17:00:57.328Z,4.10
2023-01-22T17:05:50.693Z,7.00
2023-01-22T17:10:44.075Z,5.00
2023-01-22T17:13:10.799Z,15.10
2023-01-22T17:15:39.889Z,9.90
2023-01-22T17:18:06.578Z,4.90
2023-01-22T17:23:00.198Z,3.20
2023-01-22T17:25:26.898Z,2.50
2023-01-22T17:30:20.714Z,2.40
2023-01-22T17:32:48.645Z,4.30
2023-01-22T17:35:15.474Z,3.00
2023-01-22T17:40:09.792Z,4.40
2023-01-22T17:42:36.497Z,3.10
2023-01-22T17:47:29.688Z,3.60
2023-01-22T17:49:56.305Z,3.20
2023-01-22T17:52:23.533Z,4.50
2023-01-22T17:54:52.891Z,6.30
2023-01-22T17:57:19.600Z,4.50
2023-01-22T18:02:13.255Z,3.00
2023-01-22T18:04:40.133Z,2.60
2023-01-22T18:07:06.794Z,3.40
2023-01-22T18:09:33.451Z,2.90
2023-01-22T18:12:00.563Z,3.40
2023-01-22T18:14:31.018Z,3.40
2023-01-22T18:16:57.648Z,2.40
2023-01-22T18:19:24.788Z,3.10
2023-01-22T18:21:52.064Z,3.20
2023-01-22T18:24:22.996Z,3.00
2023-01-22T18:26:50.655Z,3.00
2023-01-22T18:29:17.352Z,3.40
2023-01-22T18:34:14.650Z,3.90
2023-01-22T18:36:42.526Z,3.40
2023-01-22T18:39:16.103Z,2.30
2023-01-22T18:41:45.073Z,3.20
2023-01-22T18:44:14.637Z,4.50
2023-01-22T18:46:43.219Z,4.10
2023-01-22T18:49:13.832Z,4.90
2023-01-22T18:51:42.187Z,5.10
2023-01-22T18:54:08.903Z,4.70
2023-01-22T18:59:03.779Z,4.90
2023-01-22T19:01:33.771Z,5.00
2023-01-22T19:04:03.539Z,4.90
2023-01-22T19:06:34.665Z,6.30
2023-01-22T19:09:14.182Z,5.30
2023-01-22T19:11:44.254Z,6.30
2023-01-22T19:14:15.214Z,4.60
2023-01-22T19:16:45.058Z,5.40
2023-01-22T19:19:13.710Z,6.20
2023-01-22T19:21:46.753Z,5.50
2023-01-22T19:24:16.683Z,7.10
2023-01-22T19:26:46.235Z,7.40
2023-01-22T19:29:17.492Z,6.50
2023-01-22T19:31:48.737Z,7.50
2023-01-22T19:34:23.288Z,6.90
2023-01-22T19:36:53.318Z,6.00
2023-01-22T19:39:20.448Z,5.70
2023-01-22T19:41:47.370Z,4.80
2023-01-22T19:44:14.001Z,4.60
2023-01-22T19:49:08.875Z,4.90
2023-01-22T19:51:35.579Z,4.80
2023-01-22T19:56:33.831Z,4.60
2023-01-22T19:59:06.072Z,8.80
2023-01-22T20:01:34.174Z,9.00
2023-01-22T20:04:01.099Z,8.90
2023-01-22T20:06:27.790Z,27.20
2023-01-22T20:11:23.347Z,7.30
2023-01-22T20:13:50.185Z,6.20
2023-01-22T20:16:21.436Z,4.80
2023-01-22T20:18:49.328Z,5.20
2023-01-22T20:21:17.175Z,5.00
2023-01-22T20:23:45.384Z,4.60
2023-01-22T20:26:12.825Z,4.80
2023-01-22T20:28:39.814Z,5.20
2023-01-22T20:31:10.095Z,8.90
2023-01-22T20:33:37.635Z,6.40
2023-01-22T20:36:09.797Z,12.90
2023-01-22T20:38:37.036Z,7.00
2023-01-22T20:41:09.236Z,5.10
2023-01-22T20:43:38.053Z,9.10
2023-01-22T20:46:12.934Z,4.40
2023-01-22T20:48:40.683Z,24.60
2023-01-22T20:51:15.307Z,18.80
2023-01-22T20:53:42.583Z,11.00
2023-01-22T20:56:13.420Z,12.20
2023-01-22T20:58:40.330Z,6.90
2023-01-22T21:01:10.069Z,5.20
2023-01-22T21:03:37.101Z,4.00
2023-01-22T21:06:06.004Z,3.80
2023-01-22T21:08:32.653Z,4.70
2023-01-22T21:13:27.505Z,5.80
2023-01-22T21:15:54.725Z,4.10
2023-01-22T21:18:22.911Z,3.90
2023-01-22T21:20:50.459Z,7.40
2023-01-22T21:23:17.217Z,4.40
2023-01-22T21:28:10.951Z,4.50
2023-01-22T21:30:37.913Z,10.90
2023-01-22T21:33:04.695Z,10.70
2023-01-22T21:37:58.120Z,31.20
2023-01-22T21:40:24.711Z,17.90
2023-01-22T21:43:10.282Z,29.50
2023-01-22T21:46:01.231Z,14.60
2023-01-22T21:48:29.324Z,8.70
2023-01-22T21:50:56.049Z,17.90
2023-01-22T21:55:51.585Z,10.70
2023-01-22T21:58:18.230Z,7.20
2023-01-22T22:00:46.643Z,5.60
2023-01-22T22:03:13.424Z,5.50
2023-01-22T22:09:34.067Z,4.30
2023-01-22T22:14:29.918Z,5.00
2023-01-22T22:16:57.268Z,5.10
2023-01-22T22:19:25.104Z,5.10
2023-01-22T22:21:52.165Z,4.80
2023-01-22T22:24:19.867Z,4.20
2023-01-22T22:26:46.584Z,4.30
2023-01-22T22:31:39.950Z,3.70
2023-01-22T22:34:06.834Z,4.40
2023-01-22T22:36:34.023Z,4.20
2023-01-22T22:39:01.786Z,4.20
2023-01-22T22:41:31.091Z,4.80
2023-01-22T22:43:58.104Z,4.50
2023-01-22T22:46:30.560Z,4.20
2023-01-22T22:49:00.347Z,3.90
2023-01-22T22:51:30.410Z,5.20
2023-01-22T22:54:00.875Z,4.70
2023-01-22T22:56:28.387Z,4.90
2023-01-22T22:58:55.938Z,4.90
2023-01-22T23:01:24.651Z,4.40
2023-01-22T23:03:53.594Z,4.70
2023-01-22T23:06:27.223Z,4.90
2023-01-22T23:09:09.164Z,4.40
2023-01-22T23:11:36.596Z,4.10
2023-01-22T23:14:04.488Z,4.60
2023-01-22T23:16:37.563Z,4.00
2023-01-22T23:19:07.581Z,3.80
2023-01-22T23:21:36.502Z,3.90
2023-01-22T23:24:03.640Z,4.10
2023-01-22T23:26:31.111Z,4.10
2023-01-22T23:29:00.755Z,3.90
2023-01-22T23:31:29.856Z,3.90
2023-01-22T23:33:58.000Z,3.50
2023-01-22T23:36:28.330Z,3.70
2023-01-22T23:38:55.238Z,4.20
2023-01-22T23:41:23.304Z,3.90
2023-01-22T23:43:50.336Z,4.00
2023-01-22T23:46:20.178Z,4.40
2023-01-22T23:48:46.918Z,4.10
2023-01-22T23:53:43.995Z,3.90
2023-01-22T23:56:15.514Z,3.90
2023-01-22T23:58:42.620Z,4.00
